sensor_id;sensor_type;location;lat;lon;timestamp;P1;durP1;ratioP1;P2;durP2;ratioP2
66721;SDS011;53633;49.932;10.884;2023-06-22T00:01:20;19.20;;;11.52;;
66721;SDS011;53633;49.932;10.884;2023-06-22T00:03:47;18.73;;;11.98;;
66721;SDS011;53633;49.932;10.884;2023-06-22T00:06:14;14.63;;;10.40;;
66721;SDS011;53633;49.932;10.884;2023-06-22T00:08:40;17.13;;;11.50;;
66721;SDS011;53633;49.932;10.884;2023-06-22T00:11:07;16.33;;;10.48;;
66721;SDS011;53633;49.932;10.884;2023-06-22T00:13:34;16.00;;;10.90;;
66721;SDS011;53633;49.932;10.884;2023-06-22T00:16:01;15.90;;;11.25;;
66721;SDS011;53633;49.932;10.884;2023-06-22T00:18:29;17.70;;;10.50;;
66721;SDS011;53633;49.932;10.884;2023-06-22T00:20:56;18.83;;;11.73;;
66721;SDS011;53633;49.932;10.884;2023-06-22T00:23:23;18.23;;;11.07;;
66721;SDS011;53633;49.932;10.884;2023-06-22T00:25:50;15.63;;;11.02;;
66721;SDS011;53633;49.932;10.884;2023-06-22T00:28:17;18.52;;;11.82;;
66721;SDS011;53633;49.932;10.884;2023-06-22T00:30:43;19.70;;;11.83;;
66721;SDS011;53633;49.932;10.884;2023-06-22T00:33:10;15.30;;;11.35;;
66721;SDS011;53633;49.932;10.884;2023-06-22T00:35:38;16.50;;;11.05;;
66721;SDS011;53633;49.932;10.884;2023-06-22T00:38:05;17.02;;;11.70;;
66721;SDS011;53633;49.932;10.884;2023-06-22T00:40:32;17.75;;;11.48;;
66721;SDS011;53633;49.932;10.884;2023-06-22T00:42:59;19.57;;;12.40;;
66721;SDS011;53633;49.932;10.884;2023-06-22T00:45:26;17.70;;;12.15;;
66721;SDS011;53633;49.932;10.884;2023-06-22T00:47:53;18.02;;;11.95;;
66721;SDS011;53633;49.932;10.884;2023-06-22T00:50:23;17.25;;;12.15;;
66721;SDS011;53633;49.932;10.884;2023-06-22T00:52:57;18.33;;;11.57;;
66721;SDS011;53633;49.932;10.884;2023-06-22T00:55:26;16.53;;;11.93;;
66721;SDS011;53633;49.932;10.884;2023-06-22T00:57:53;15.95;;;10.90;;
66721;SDS011;53633;49.932;10.884;2023-06-22T01:00:20;17.35;;;11.60;;
66721;SDS011;53633;49.932;10.884;2023-06-22T01:02:47;17.85;;;11.55;;
66721;SDS011;53633;49.932;10.884;2023-06-22T01:05:14;17.38;;;10.95;;
66721;SDS011;53633;49.932;10.884;2023-06-22T01:07:42;16.97;;;11.23;;
66721;SDS011;53633;49.932;10.884;2023-06-22T01:10:18;18.95;;;11.50;;
66721;SDS011;53633;49.932;10.884;2023-06-22T01:12:50;18.10;;;10.85;;
66721;SDS011;53633;49.932;10.884;2023-06-22T01:15:21;18.63;;;12.00;;
66721;SDS011;53633;49.932;10.884;2023-06-22T01:17:54;19.77;;;13.02;;
66721;SDS011;53633;49.932;10.884;2023-06-22T01:20:22;18.97;;;12.60;;
66721;SDS011;53633;49.932;10.884;2023-06-22T01:22:56;20.00;;;12.55;;
66721;SDS011;53633;49.932;10.884;2023-06-22T01:25:36;18.10;;;12.23;;
66721;SDS011;53633;49.932;10.884;2023-06-22T01:28:17;19.50;;;12.18;;
66721;SDS011;53633;49.932;10.884;2023-06-22T01:30:53;18.30;;;12.77;;
66721;SDS011;53633;49.932;10.884;2023-06-22T01:33:20;17.73;;;11.57;;
66721;SDS011;53633;49.932;10.884;2023-06-22T01:35:47;16.95;;;10.88;;
66721;SDS011;53633;49.932;10.884;2023-06-22T01:38:14;18.73;;;11.70;;
66721;SDS011;53633;49.932;10.884;2023-06-22T01:40:41;18.52;;;10.95;;
66721;SDS011;53633;49.932;10.884;2023-06-22T01:43:08;19.10;;;12.35;;
66721;SDS011;53633;49.932;10.884;2023-06-22T01:45:35;21.10;;;11.67;;
66721;SDS011;53633;49.932;10.884;2023-06-22T01:48:03;19.83;;;12.48;;
66721;SDS011;53633;49.932;10.884;2023-06-22T01:50:31;19.63;;;12.38;;
66721;SDS011;53633;49.932;10.884;2023-06-22T01:52:58;21.05;;;13.13;;
66721;SDS011;53633;49.932;10.884;2023-06-22T01:55:25;20.50;;;12.38;;
66721;SDS011;53633;49.932;10.884;2023-06-22T01:57:51;16.53;;;11.97;;
66721;SDS011;53633;49.932;10.884;2023-06-22T02:00:19;21.10;;;12.10;;
66721;SDS011;53633;49.932;10.884;2023-06-22T02:02:49;20.23;;;11.90;;
66721;SDS011;53633;49.932;10.884;2023-06-22T02:05:23;19.00;;;12.25;;
66721;SDS011;53633;49.932;10.884;2023-06-22T02:07:55;20.27;;;12.00;;
66721;SDS011;53633;49.932;10.884;2023-06-22T02:10:34;21.07;;;13.47;;
66721;SDS011;53633;49.932;10.884;2023-06-22T02:13:02;18.75;;;13.23;;
66721;SDS011;53633;49.932;10.884;2023-06-22T02:15:30;19.70;;;12.30;;
66721;SDS011;53633;49.932;10.884;2023-06-22T02:17:58;25.02;;;14.32;;
66721;SDS011;53633;49.932;10.884;2023-06-22T02:20:26;20.70;;;12.93;;
66721;SDS011;53633;49.932;10.884;2023-06-22T02:22:53;24.30;;;13.57;;
66721;SDS011;53633;49.932;10.884;2023-06-22T02:25:20;20.48;;;13.80;;
66721;SDS011;53633;49.932;10.884;2023-06-22T02:27:46;21.50;;;13.23;;
66721;SDS011;53633;49.932;10.884;2023-06-22T02:30:13;20.05;;;13.80;;
66721;SDS011;53633;49.932;10.884;2023-06-22T02:32:40;20.10;;;13.77;;
66721;SDS011;53633;49.932;10.884;2023-06-22T02:35:07;18.80;;;12.40;;
66721;SDS011;53633;49.932;10.884;2023-06-22T02:37:36;21.70;;;12.93;;
66721;SDS011;53633;49.932;10.884;2023-06-22T02:40:04;23.45;;;13.40;;
66721;SDS011;53633;49.932;10.884;2023-06-22T02:42:32;22.83;;;14.13;;
66721;SDS011;53633;49.932;10.884;2023-06-22T02:44:58;19.55;;;13.38;;
66721;SDS011;53633;49.932;10.884;2023-06-22T02:47:25;18.90;;;13.07;;
66721;SDS011;53633;49.932;10.884;2023-06-22T02:49:52;22.92;;;13.45;;
66721;SDS011;53633;49.932;10.884;2023-06-22T02:52:19;20.10;;;12.80;;
66721;SDS011;53633;49.932;10.884;2023-06-22T02:54:47;18.77;;;12.80;;
66721;SDS011;53633;49.932;10.884;2023-06-22T02:57:14;20.33;;;12.63;;
66721;SDS011;53633;49.932;10.884;2023-06-22T02:59:40;21.93;;;13.03;;
66721;SDS011;53633;49.932;10.884;2023-06-22T03:02:07;18.63;;;12.90;;
66721;SDS011;53633;49.932;10.884;2023-06-22T03:04:34;24.23;;;13.57;;
66721;SDS011;53633;49.932;10.884;2023-06-22T03:07:01;19.30;;;12.50;;
66721;SDS011;53633;49.932;10.884;2023-06-22T03:09:28;19.35;;;12.15;;
66721;SDS011;53633;49.932;10.884;2023-06-22T03:11:57;20.97;;;13.03;;
66721;SDS011;53633;49.932;10.884;2023-06-22T03:14:23;19.70;;;13.10;;
66721;SDS011;53633;49.932;10.884;2023-06-22T03:16:50;20.40;;;13.82;;
66721;SDS011;53633;49.932;10.884;2023-06-22T03:19:17;21.63;;;13.82;;
66721;SDS011;53633;49.932;10.884;2023-06-22T03:21:43;20.63;;;14.18;;
66721;SDS011;53633;49.932;10.884;2023-06-22T03:24:10;22.10;;;13.53;;
66721;SDS011;53633;49.932;10.884;2023-06-22T03:26:37;19.33;;;12.93;;
66721;SDS011;53633;49.932;10.884;2023-06-22T03:29:05;21.08;;;12.32;;
66721;SDS011;53633;49.932;10.884;2023-06-22T03:31:31;21.02;;;13.02;;
66721;SDS011;53633;49.932;10.884;2023-06-22T03:33:58;20.35;;;12.30;;
66721;SDS011;53633;49.932;10.884;2023-06-22T03:36:25;21.97;;;13.73;;
66721;SDS011;53633;49.932;10.884;2023-06-22T03:38:51;20.55;;;12.95;;
66721;SDS011;53633;49.932;10.884;2023-06-22T03:41:18;17.98;;;13.13;;
66721;SDS011;53633;49.932;10.884;2023-06-22T03:43:45;24.38;;;14.52;;
66721;SDS011;53633;49.932;10.884;2023-06-22T03:46:13;24.00;;;14.40;;
66721;SDS011;53633;49.932;10.884;2023-06-22T03:48:40;23.37;;;14.43;;
66721;SDS011;53633;49.932;10.884;2023-06-22T03:51:07;27.40;;;15.60;;
66721;SDS011;53633;49.932;10.884;2023-06-22T03:53:33;25.50;;;14.85;;
66721;SDS011;53633;49.932;10.884;2023-06-22T03:56:00;21.08;;;13.15;;
66721;SDS011;53633;49.932;10.884;2023-06-22T03:58:27;22.25;;;14.18;;
66721;SDS011;53633;49.932;10.884;2023-06-22T04:00:53;23.47;;;14.57;;
66721;SDS011;53633;49.932;10.884;2023-06-22T04:03:21;24.52;;;14.77;;
66721;SDS011;53633;49.932;10.884;2023-06-22T04:05:48;20.05;;;13.38;;
66721;SDS011;53633;49.932;10.884;2023-06-22T04:08:15;24.27;;;14.40;;
66721;SDS011;53633;49.932;10.884;2023-06-22T04:10:42;21.33;;;13.90;;
66721;SDS011;53633;49.932;10.884;2023-06-22T04:13:09;20.63;;;14.13;;
66721;SDS011;53633;49.932;10.884;2023-06-22T04:15:36;20.90;;;13.35;;
66721;SDS011;53633;49.932;10.884;2023-06-22T04:18:02;23.92;;;13.68;;
66721;SDS011;53633;49.932;10.884;2023-06-22T04:20:31;22.17;;;13.85;;
66721;SDS011;53633;49.932;10.884;2023-06-22T04:22:59;22.48;;;13.68;;
66721;SDS011;53633;49.932;10.884;2023-06-22T04:25:25;20.57;;;13.73;;
66721;SDS011;53633;49.932;10.884;2023-06-22T04:27:52;21.83;;;13.45;;
66721;SDS011;53633;49.932;10.884;2023-06-22T04:30:19;22.23;;;13.70;;
66721;SDS011;53633;49.932;10.884;2023-06-22T04:32:46;19.17;;;13.15;;
66721;SDS011;53633;49.932;10.884;2023-06-22T04:35:13;22.05;;;12.98;;
66721;SDS011;53633;49.932;10.884;2023-06-22T04:37:41;19.07;;;12.77;;
66721;SDS011;53633;49.932;10.884;2023-06-22T04:40:08;19.88;;;12.70;;
66721;SDS011;53633;49.932;10.884;2023-06-22T04:42:35;23.85;;;13.50;;
66721;SDS011;53633;49.932;10.884;2023-06-22T04:45:05;20.02;;;11.95;;
66721;SDS011;53633;49.932;10.884;2023-06-22T04:47:32;18.67;;;11.93;;
66721;SDS011;53633;49.932;10.884;2023-06-22T04:49:59;20.53;;;11.63;;
66721;SDS011;53633;49.932;10.884;2023-06-22T04:52:26;18.83;;;12.20;;
66721;SDS011;53633;49.932;10.884;2023-06-22T04:54:54;16.75;;;11.65;;
66721;SDS011;53633;49.932;10.884;2023-06-22T04:57:20;19.65;;;12.35;;
66721;SDS011;53633;49.932;10.884;2023-06-22T04:59:47;16.30;;;11.57;;
66721;SDS011;53633;49.932;10.884;2023-06-22T05:02:14;17.23;;;11.13;;
66721;SDS011;53633;49.932;10.884;2023-06-22T05:04:41;15.70;;;11.40;;
66721;SDS011;53633;49.932;10.884;2023-06-22T05:07:08;16.00;;;11.25;;
66721;SDS011;53633;49.932;10.884;2023-06-22T05:09:35;16.40;;;11.52;;
66721;SDS011;53633;49.932;10.884;2023-06-22T05:12:03;17.92;;;11.60;;
66721;SDS011;53633;49.932;10.884;2023-06-22T05:14:34;15.67;;;10.67;;
66721;SDS011;53633;49.932;10.884;2023-06-22T05:17:00;16.88;;;11.52;;
66721;SDS011;53633;49.932;10.884;2023-06-22T05:19:27;15.48;;;10.80;;
66721;SDS011;53633;49.932;10.884;2023-06-22T05:21:54;17.17;;;10.88;;
66721;SDS011;53633;49.932;10.884;2023-06-22T05:24:21;16.27;;;10.43;;
66721;SDS011;53633;49.932;10.884;2023-06-22T05:26:47;14.03;;;10.33;;
66721;SDS011;53633;49.932;10.884;2023-06-22T05:29:16;16.85;;;10.85;;
66721;SDS011;53633;49.932;10.884;2023-06-22T05:31:42;16.13;;;10.63;;
66721;SDS011;53633;49.932;10.884;2023-06-22T05:34:09;16.23;;;10.30;;
66721;SDS011;53633;49.932;10.884;2023-06-22T05:36:36;16.75;;;10.90;;
66721;SDS011;53633;49.932;10.884;2023-06-22T05:39:10;15.23;;;10.27;;
66721;SDS011;53633;49.932;10.884;2023-06-22T05:41:37;15.57;;;10.40;;
66721;SDS011;53633;49.932;10.884;2023-06-22T05:44:04;16.80;;;10.32;;
66721;SDS011;53633;49.932;10.884;2023-06-22T05:46:32;14.43;;;10.55;;
66721;SDS011;53633;49.932;10.884;2023-06-22T05:48:59;14.52;;;10.65;;
66721;SDS011;53633;49.932;10.884;2023-06-22T05:51:25;14.13;;;10.10;;
66721;SDS011;53633;49.932;10.884;2023-06-22T05:53:52;15.63;;;10.52;;
66721;SDS011;53633;49.932;10.884;2023-06-22T05:56:19;14.98;;;10.52;;
66721;SDS011;53633;49.932;10.884;2023-06-22T05:58:59;15.00;;;10.52;;
66721;SDS011;53633;49.932;10.884;2023-06-22T06:01:26;15.20;;;10.45;;
66721;SDS011;53633;49.932;10.884;2023-06-22T06:03:54;14.60;;;10.13;;
66721;SDS011;53633;49.932;10.884;2023-06-22T06:06:21;16.65;;;10.75;;
66721;SDS011;53633;49.932;10.884;2023-06-22T06:08:47;16.08;;;9.95;;
66721;SDS011;53633;49.932;10.884;2023-06-22T06:11:14;14.18;;;10.50;;
66721;SDS011;53633;49.932;10.884;2023-06-22T06:13:41;13.38;;;9.85;;
66721;SDS011;53633;49.932;10.884;2023-06-22T06:16:08;15.07;;;10.30;;
66721;SDS011;53633;49.932;10.884;2023-06-22T06:18:34;13.75;;;10.45;;
66721;SDS011;53633;49.932;10.884;2023-06-22T06:21:02;13.70;;;10.27;;
66721;SDS011;53633;49.932;10.884;2023-06-22T06:23:29;15.88;;;10.23;;
66721;SDS011;53633;49.932;10.884;2023-06-22T06:25:56;13.98;;;10.50;;
66721;SDS011;53633;49.932;10.884;2023-06-22T06:28:24;15.20;;;10.30;;
66721;SDS011;53633;49.932;10.884;2023-06-22T06:30:51;14.00;;;9.82;;
66721;SDS011;53633;49.932;10.884;2023-06-22T06:33:18;13.55;;;10.35;;
66721;SDS011;53633;49.932;10.884;2023-06-22T06:35:45;15.10;;;9.75;;
66721;SDS011;53633;49.932;10.884;2023-06-22T06:38:13;13.63;;;10.13;;
66721;SDS011;53633;49.932;10.884;2023-06-22T06:40:40;13.80;;;9.97;;
66721;SDS011;53633;49.932;10.884;2023-06-22T06:43:06;13.02;;;9.63;;
66721;SDS011;53633;49.932;10.884;2023-06-22T06:45:33;13.35;;;9.95;;
66721;SDS011;53633;49.932;10.884;2023-06-22T06:48:00;15.70;;;10.77;;
66721;SDS011;53633;49.932;10.884;2023-06-22T06:50:27;15.70;;;9.40;;
66721;SDS011;53633;49.932;10.884;2023-06-22T06:52:54;14.27;;;10.40;;
66721;SDS011;53633;49.932;10.884;2023-06-22T06:55:23;13.55;;;9.68;;
66721;SDS011;53633;49.932;10.884;2023-06-22T06:57:49;16.15;;;9.75;;
66721;SDS011;53633;49.932;10.884;2023-06-22T07:00:17;12.45;;;8.68;;
66721;SDS011;53633;49.932;10.884;2023-06-22T07:02:44;14.60;;;8.75;;
66721;SDS011;53633;49.932;10.884;2023-06-22T07:05:11;12.20;;;8.77;;
66721;SDS011;53633;49.932;10.884;2023-06-22T07:07:39;13.65;;;9.70;;
66721;SDS011;53633;49.932;10.884;2023-06-22T07:10:06;10.48;;;7.25;;
66721;SDS011;53633;49.932;10.884;2023-06-22T07:12:35;11.27;;;7.20;;
66721;SDS011;53633;49.932;10.884;2023-06-22T07:15:03;10.00;;;6.60;;
66721;SDS011;53633;49.932;10.884;2023-06-22T07:17:30;10.90;;;7.00;;
66721;SDS011;53633;49.932;10.884;2023-06-22T07:19:57;9.85;;;6.88;;
66721;SDS011;53633;49.932;10.884;2023-06-22T07:22:23;10.30;;;6.90;;
66721;SDS011;53633;49.932;10.884;2023-06-22T07:24:50;10.70;;;6.80;;
66721;SDS011;53633;49.932;10.884;2023-06-22T07:27:17;11.25;;;6.55;;
66721;SDS011;53633;49.932;10.884;2023-06-22T07:29:45;9.53;;;6.20;;
66721;SDS011;53633;49.932;10.884;2023-06-22T07:32:11;10.80;;;6.45;;
66721;SDS011;53633;49.932;10.884;2023-06-22T07:34:38;10.20;;;6.95;;
66721;SDS011;53633;49.932;10.884;2023-06-22T07:37:05;10.23;;;7.03;;
66721;SDS011;53633;49.932;10.884;2023-06-22T07:39:32;10.20;;;6.75;;
66721;SDS011;53633;49.932;10.884;2023-06-22T07:41:58;8.90;;;6.73;;
66721;SDS011;53633;49.932;10.884;2023-06-22T07:44:39;11.77;;;6.38;;
66721;SDS011;53633;49.932;10.884;2023-06-22T07:47:07;9.15;;;5.78;;
66721;SDS011;53633;49.932;10.884;2023-06-22T07:49:34;10.88;;;6.18;;
66721;SDS011;53633;49.932;10.884;2023-06-22T07:52:00;9.35;;;6.03;;
66721;SDS011;53633;49.932;10.884;2023-06-22T07:54:27;9.13;;;6.43;;
66721;SDS011;53633;49.932;10.884;2023-06-22T07:56:54;9.20;;;6.30;;
66721;SDS011;53633;49.932;10.884;2023-06-22T07:59:21;9.18;;;6.38;;
66721;SDS011;53633;49.932;10.884;2023-06-22T08:01:47;9.95;;;6.15;;
66721;SDS011;53633;49.932;10.884;2023-06-22T08:04:16;9.73;;;6.68;;
66721;SDS011;53633;49.932;10.884;2023-06-22T08:06:42;10.07;;;6.47;;
66721;SDS011;53633;49.932;10.884;2023-06-22T08:09:09;8.80;;;5.90;;
66721;SDS011;53633;49.932;10.884;2023-06-22T08:11:36;9.02;;;5.78;;
66721;SDS011;53633;49.932;10.884;2023-06-22T08:14:02;8.48;;;5.45;;
66721;SDS011;53633;49.932;10.884;2023-06-22T08:16:29;10.77;;;6.28;;
66721;SDS011;53633;49.932;10.884;2023-06-22T08:18:56;8.77;;;5.43;;
66721;SDS011;53633;49.932;10.884;2023-06-22T08:21:24;9.68;;;6.05;;
66721;SDS011;53633;49.932;10.884;2023-06-22T08:23:51;9.23;;;5.75;;
66721;SDS011;53633;49.932;10.884;2023-06-22T08:26:17;9.07;;;6.10;;
66721;SDS011;53633;49.932;10.884;2023-06-22T08:28:44;9.38;;;6.22;;
66721;SDS011;53633;49.932;10.884;2023-06-22T08:31:11;8.13;;;5.57;;
66721;SDS011;53633;49.932;10.884;2023-06-22T08:33:37;10.05;;;6.50;;
66721;SDS011;53633;49.932;10.884;2023-06-22T08:36:15;10.05;;;5.80;;
66721;SDS011;53633;49.932;10.884;2023-06-22T08:38:43;8.60;;;5.75;;
66721;SDS011;53633;49.932;10.884;2023-06-22T08:41:09;10.55;;;5.90;;
66721;SDS011;53633;49.932;10.884;2023-06-22T08:43:36;9.53;;;5.63;;
66721;SDS011;53633;49.932;10.884;2023-06-22T08:46:03;8.93;;;5.78;;
66721;SDS011;53633;49.932;10.884;2023-06-22T08:48:29;8.32;;;5.60;;
66721;SDS011;53633;49.932;10.884;2023-06-22T08:50:56;8.00;;;5.80;;
66721;SDS011;53633;49.932;10.884;2023-06-22T08:53:23;9.27;;;6.45;;
66721;SDS011;53633;49.932;10.884;2023-06-22T08:55:51;10.27;;;6.10;;
66721;SDS011;53633;49.932;10.884;2023-06-22T08:58:17;9.98;;;5.55;;
66721;SDS011;53633;49.932;10.884;2023-06-22T09:00:44;8.50;;;5.35;;
66721;SDS011;53633;49.932;10.884;2023-06-22T09:03:11;9.80;;;5.60;;
66721;SDS011;53633;49.932;10.884;2023-06-22T09:05:38;9.15;;;5.80;;
66721;SDS011;53633;49.932;10.884;2023-06-22T09:08:05;8.43;;;6.33;;
66721;SDS011;53633;49.932;10.884;2023-06-22T09:10:32;8.80;;;6.50;;
66721;SDS011;53633;49.932;10.884;2023-06-22T09:13:00;10.70;;;6.13;;
66721;SDS011;53633;49.932;10.884;2023-06-22T09:15:27;10.95;;;5.85;;
66721;SDS011;53633;49.932;10.884;2023-06-22T09:17:54;7.90;;;6.18;;
66721;SDS011;53633;49.932;10.884;2023-06-22T09:20:21;7.97;;;5.60;;
66721;SDS011;53633;49.932;10.884;2023-06-22T09:22:48;8.00;;;5.63;;
66721;SDS011;53633;49.932;10.884;2023-06-22T09:25:14;9.93;;;5.80;;
66721;SDS011;53633;49.932;10.884;2023-06-22T09:27:41;8.57;;;5.43;;
66721;SDS011;53633;49.932;10.884;2023-06-22T09:30:10;8.27;;;5.85;;
66721;SDS011;53633;49.932;10.884;2023-06-22T09:32:37;9.30;;;5.20;;
66721;SDS011;53633;49.932;10.884;2023-06-22T09:35:04;7.50;;;5.60;;
66721;SDS011;53633;49.932;10.884;2023-06-22T09:37:32;7.90;;;5.00;;
66721;SDS011;53633;49.932;10.884;2023-06-22T09:39:59;7.78;;;5.13;;
66721;SDS011;53633;49.932;10.884;2023-06-22T09:42:25;7.78;;;5.57;;
66721;SDS011;53633;49.932;10.884;2023-06-22T09:44:52;8.53;;;5.50;;
66721;SDS011;53633;49.932;10.884;2023-06-22T09:47:20;9.15;;;5.20;;
66721;SDS011;53633;49.932;10.884;2023-06-22T09:49:47;10.43;;;5.50;;
66721;SDS011;53633;49.932;10.884;2023-06-22T09:52:14;9.40;;;5.78;;
66721;SDS011;53633;49.932;10.884;2023-06-22T09:54:41;9.65;;;5.55;;
66721;SDS011;53633;49.932;10.884;2023-06-22T09:57:08;8.47;;;5.80;;
66721;SDS011;53633;49.932;10.884;2023-06-22T09:59:35;8.80;;;5.85;;
66721;SDS011;53633;49.932;10.884;2023-06-22T10:02:01;8.30;;;5.80;;
66721;SDS011;53633;49.932;10.884;2023-06-22T10:04:30;9.30;;;5.28;;
66721;SDS011;53633;49.932;10.884;2023-06-22T10:06:57;8.93;;;5.65;;
66721;SDS011;53633;49.932;10.884;2023-06-22T10:09:23;9.47;;;5.60;;
66721;SDS011;53633;49.932;10.884;2023-06-22T10:11:50;8.32;;;5.63;;
66721;SDS011;53633;49.932;10.884;2023-06-22T10:14:17;7.75;;;4.90;;
66721;SDS011;53633;49.932;10.884;2023-06-22T10:16:44;8.45;;;5.40;;
66721;SDS011;53633;49.932;10.884;2023-06-22T10:19:11;8.27;;;4.70;;
66721;SDS011;53633;49.932;10.884;2023-06-22T10:21:39;8.80;;;5.70;;
66721;SDS011;53633;49.932;10.884;2023-06-22T10:24:05;7.35;;;4.80;;
66721;SDS011;53633;49.932;10.884;2023-06-22T10:26:33;8.05;;;5.15;;
66721;SDS011;53633;49.932;10.884;2023-06-22T10:28:59;7.53;;;5.15;;
66721;SDS011;53633;49.932;10.884;2023-06-22T10:31:32;8.55;;;4.82;;
66721;SDS011;53633;49.932;10.884;2023-06-22T10:33:59;7.80;;;4.90;;
66721;SDS011;53633;49.932;10.884;2023-06-22T10:36:26;9.55;;;5.40;;
66721;SDS011;53633;49.932;10.884;2023-06-22T10:38:54;9.52;;;5.32;;
66721;SDS011;53633;49.932;10.884;2023-06-22T10:41:21;8.55;;;5.30;;
66721;SDS011;53633;49.932;10.884;2023-06-22T10:43:47;11.52;;;4.72;;
66721;SDS011;53633;49.932;10.884;2023-06-22T10:46:14;8.40;;;4.80;;
66721;SDS011;53633;49.932;10.884;2023-06-22T10:48:40;9.23;;;5.10;;
66721;SDS011;53633;49.932;10.884;2023-06-22T10:51:07;7.68;;;4.10;;
66721;SDS011;53633;49.932;10.884;2023-06-22T10:53:34;8.93;;;4.93;;
66721;SDS011;53633;49.932;10.884;2023-06-22T10:58:44;8.27;;;5.03;;
66721;SDS011;53633;49.932;10.884;2023-06-22T11:01:11;8.90;;;4.53;;
66721;SDS011;53633;49.932;10.884;2023-06-22T11:03:57;8.93;;;4.68;;
66721;SDS011;53633;49.932;10.884;2023-06-22T11:06:24;9.93;;;4.95;;
66721;SDS011;53633;49.932;10.884;2023-06-22T11:08:51;7.70;;;4.50;;
66721;SDS011;53633;49.932;10.884;2023-06-22T11:11:33;9.13;;;5.17;;
66721;SDS011;53633;49.932;10.884;2023-06-22T11:14:00;10.30;;;4.35;;
66721;SDS011;53633;49.932;10.884;2023-06-22T11:16:27;7.38;;;4.45;;
66721;SDS011;53633;49.932;10.884;2023-06-22T11:18:54;8.35;;;4.88;;
66721;SDS011;53633;49.932;10.884;2023-06-22T11:21:20;8.10;;;4.68;;
66721;SDS011;53633;49.932;10.884;2023-06-22T11:23:47;9.23;;;4.73;;
66721;SDS011;53633;49.932;10.884;2023-06-22T11:26:14;7.47;;;4.07;;
66721;SDS011;53633;49.932;10.884;2023-06-22T11:28:42;10.48;;;4.80;;
66721;SDS011;53633;49.932;10.884;2023-06-22T11:31:08;8.32;;;4.93;;
66721;SDS011;53633;49.932;10.884;2023-06-22T11:33:51;8.68;;;4.95;;
66721;SDS011;53633;49.932;10.884;2023-06-22T11:36:18;7.60;;;4.53;;
66721;SDS011;53633;49.932;10.884;2023-06-22T11:38:45;10.35;;;4.63;;
66721;SDS011;53633;49.932;10.884;2023-06-22T11:41:12;8.15;;;4.80;;
66721;SDS011;53633;49.932;10.884;2023-06-22T11:43:39;9.20;;;5.20;;
66721;SDS011;53633;49.932;10.884;2023-06-22T11:46:07;8.75;;;5.00;;
66721;SDS011;53633;49.932;10.884;2023-06-22T11:48:34;7.73;;;4.13;;
66721;SDS011;53633;49.932;10.884;2023-06-22T11:51:00;8.18;;;4.65;;
66721;SDS011;53633;49.932;10.884;2023-06-22T11:53:27;8.20;;;4.47;;
66721;SDS011;53633;49.932;10.884;2023-06-22T11:55:54;9.82;;;4.70;;
66721;SDS011;53633;49.932;10.884;2023-06-22T11:58:21;11.57;;;4.65;;
66721;SDS011;53633;49.932;10.884;2023-06-22T12:00:48;12.57;;;5.50;;
66721;SDS011;53633;49.932;10.884;2023-06-22T12:03:19;9.45;;;5.18;;
66721;SDS011;53633;49.932;10.884;2023-06-22T12:05:46;9.73;;;5.15;;
66721;SDS011;53633;49.932;10.884;2023-06-22T12:08:13;7.72;;;4.55;;
66721;SDS011;53633;49.932;10.884;2023-06-22T12:10:39;8.50;;;4.68;;
66721;SDS011;53633;49.932;10.884;2023-06-22T12:13:06;11.17;;;4.67;;
66721;SDS011;53633;49.932;10.884;2023-06-22T12:15:33;8.57;;;4.30;;
66721;SDS011;53633;49.932;10.884;2023-06-22T12:17:59;9.73;;;4.65;;
66721;SDS011;53633;49.932;10.884;2023-06-22T12:20:28;11.23;;;4.90;;
66721;SDS011;53633;49.932;10.884;2023-06-22T12:22:55;9.40;;;4.75;;
66721;SDS011;53633;49.932;10.884;2023-06-22T12:25:22;8.23;;;4.83;;
66721;SDS011;53633;49.932;10.884;2023-06-22T12:27:48;8.18;;;4.95;;
66721;SDS011;53633;49.932;10.884;2023-06-22T12:30:15;8.75;;;5.10;;
66721;SDS011;53633;49.932;10.884;2023-06-22T12:32:42;9.93;;;5.05;;
66721;SDS011;53633;49.932;10.884;2023-06-22T12:35:09;9.55;;;4.60;;
66721;SDS011;53633;49.932;10.884;2023-06-22T12:37:37;8.63;;;4.70;;
66721;SDS011;53633;49.932;10.884;2023-06-22T12:40:04;8.13;;;4.75;;
66721;SDS011;53633;49.932;10.884;2023-06-22T12:42:32;10.02;;;4.95;;
66721;SDS011;53633;49.932;10.884;2023-06-22T12:44:59;12.73;;;5.20;;
66721;SDS011;53633;49.932;10.884;2023-06-22T12:47:26;9.05;;;4.80;;
66721;SDS011;53633;49.932;10.884;2023-06-22T12:49:52;11.33;;;4.67;;
66721;SDS011;53633;49.932;10.884;2023-06-22T12:52:19;12.25;;;4.88;;
66721;SDS011;53633;49.932;10.884;2023-06-22T12:54:47;10.27;;;5.25;;
66721;SDS011;53633;49.932;10.884;2023-06-22T12:57:21;9.65;;;5.22;;
66721;SDS011;53633;49.932;10.884;2023-06-22T12:59:48;8.95;;;4.20;;
66721;SDS011;53633;49.932;10.884;2023-06-22T13:02:15;8.70;;;4.77;;
66721;SDS011;53633;49.932;10.884;2023-06-22T13:04:41;9.50;;;4.75;;
66721;SDS011;53633;49.932;10.884;2023-06-22T13:07:08;13.35;;;5.60;;
66721;SDS011;53633;49.932;10.884;2023-06-22T13:09:50;10.40;;;4.85;;
66721;SDS011;53633;49.932;10.884;2023-06-22T13:12:16;9.35;;;4.50;;
66721;SDS011;53633;49.932;10.884;2023-06-22T13:14:43;9.80;;;4.90;;
66721;SDS011;53633;49.932;10.884;2023-06-22T13:17:10;12.15;;;5.25;;
66721;SDS011;53633;49.932;10.884;2023-06-22T13:19:36;11.88;;;5.50;;
66721;SDS011;53633;49.932;10.884;2023-06-22T13:22:03;12.18;;;5.18;;
66721;SDS011;53633;49.932;10.884;2023-06-22T13:24:31;11.30;;;5.47;;
66721;SDS011;53633;49.932;10.884;2023-06-22T13:26:59;11.70;;;5.27;;
66721;SDS011;53633;49.932;10.884;2023-06-22T13:29:26;13.93;;;5.50;;
66721;SDS011;53633;49.932;10.884;2023-06-22T13:31:52;10.50;;;4.90;;
66721;SDS011;53633;49.932;10.884;2023-06-22T13:34:19;11.60;;;5.28;;
66721;SDS011;53633;49.932;10.884;2023-06-22T13:36:46;12.25;;;5.15;;
66721;SDS011;53633;49.932;10.884;2023-06-22T13:39:13;12.67;;;5.07;;
66721;SDS011;53633;49.932;10.884;2023-06-22T13:41:39;10.73;;;5.63;;
66721;SDS011;53633;49.932;10.884;2023-06-22T13:44:08;11.27;;;5.00;;
66721;SDS011;53633;49.932;10.884;2023-06-22T13:46:34;11.52;;;5.15;;
66721;SDS011;53633;49.932;10.884;2023-06-22T13:49:01;12.77;;;5.53;;
66721;SDS011;53633;49.932;10.884;2023-06-22T13:51:28;9.57;;;5.40;;
66721;SDS011;53633;49.932;10.884;2023-06-22T13:53:55;11.80;;;5.68;;
66721;SDS011;53633;49.932;10.884;2023-06-22T13:56:22;9.60;;;4.80;;
66721;SDS011;53633;49.932;10.884;2023-06-22T13:58:48;12.07;;;4.78;;
66721;SDS011;53633;49.932;10.884;2023-06-22T14:01:17;13.73;;;5.15;;
66721;SDS011;53633;49.932;10.884;2023-06-22T14:03:43;8.70;;;4.90;;
66721;SDS011;53633;49.932;10.884;2023-06-22T14:06:10;13.18;;;5.80;;
66721;SDS011;53633;49.932;10.884;2023-06-22T14:08:37;10.13;;;5.07;;
66721;SDS011;53633;49.932;10.884;2023-06-22T14:11:07;10.48;;;5.70;;
66721;SDS011;53633;49.932;10.884;2023-06-22T14:13:34;12.40;;;5.18;;
66721;SDS011;53633;49.932;10.884;2023-06-22T14:16:01;11.63;;;5.43;;
66721;SDS011;53633;49.932;10.884;2023-06-22T14:18:29;11.20;;;5.90;;
66721;SDS011;53633;49.932;10.884;2023-06-22T14:20:56;11.30;;;5.00;;
66721;SDS011;53633;49.932;10.884;2023-06-22T14:23:22;15.13;;;5.20;;
66721;SDS011;53633;49.932;10.884;2023-06-22T14:25:49;11.95;;;5.20;;